Time;durP1;ratioP1;P1;durP2;ratioP2;P2;SDS_P1;SDS_P2;PMS_P1;PMS_P2;Temp;Humidity;BMP_temperature;BMP_pressure;BME280_temperature;BME280_humidity;BME280_pressure;Samples;Min_cycle;Max_cycle;Signal;HPM_P1;HPM_P2
2021/10/31 00:01:30;;;;;;;5.90;5.30;;;12.30;99.90;;;;;;5052820;28;20436;-67
2021/10/31 00:03:57;;;;;;;7.50;4.97;;;12.40;99.90;;;;;;5055126;28;20440;-67
2021/10/31 00:06:25;;;;;;;7.40;6.10;;;12.40;99.90;;;;;;5047474;28;20479;-68
2021/10/31 00:08:52;;;;;;;6.13;5.40;;;12.30;99.90;;;;;;5062376;28;20443;-68
2021/10/31 00:11:19;;;;;;;6.10;4.60;;;12.40;99.90;;;;;;5067668;28;20435;-67
2021/10/31 00:13:47;;;;;;;6.33;4.97;;;12.50;99.90;;;;;;5048736;28;20881;-66
2021/10/31 00:16:14;;;;;;;7.53;5.77;;;12.50;99.90;;;;;;5048495;28;20459;-67
2021/10/31 00:18:41;;;;;;;7.07;6.37;;;12.40;99.90;;;;;;5048431;28;20497;-66
2021/10/31 00:21:08;;;;;;;6.80;5.90;;;12.30;99.90;;;;;;5068803;28;20534;-66
2021/10/31 00:23:36;;;;;;;6.70;6.03;;;12.30;99.90;;;;;;5067585;28;20466;-68
2021/10/31 00:26:03;;;;;;;8.00;6.60;;;12.30;99.90;;;;;;5047655;28;20973;-67
2021/10/31 00:28:30;;;;;;;8.30;6.40;;;12.30;99.90;;;;;;5047581;28;20443;-66
2021/10/31 00:30:57;;;;;;;7.60;6.40;;;12.30;99.90;;;;;;5058461;28;20518;-67
2021/10/31 00:33:24;;;;;;;7.73;6.87;;;12.30;99.90;;;;;;5047931;28;20478;-66
2021/10/31 00:35:51;;;;;;;6.63;5.80;;;12.30;99.90;;;;;;5048081;28;20502;-68
2021/10/31 00:38:18;;;;;;;7.23;5.60;;;12.30;99.90;;;;;;5047152;28;20447;-67
2021/10/31 00:40:47;;;;;;;6.83;5.73;;;12.30;99.90;;;;;;5047909;28;20447;-68
2021/10/31 00:43:13;;;;;;;5.50;4.90;;;12.30;99.90;;;;;;5048001;28;20527;-67
2021/10/31 00:45:40;;;;;;;5.97;5.10;;;12.30;99.90;;;;;;5064879;28;20469;-67
2021/10/31 00:48:07;;;;;;;7.80;6.20;;;12.30;99.90;;;;;;5060882;28;20477;-68
2021/10/31 00:50:34;;;;;;;6.77;5.87;;;12.40;99.90;;;;;;5067346;28;20478;-67
2021/10/31 00:53:02;;;;;;;6.63;6.03;;;12.30;99.90;;;;;;5067622;28;20493;-67
2021/10/31 00:55:29;;;;;;;7.53;6.17;;;12.30;99.90;;;;;;5067135;28;20470;-67
2021/10/31 00:57:59;;;;;;;9.80;5.87;;;12.10;99.90;;;;;;5067530;28;20445;-66
2021/10/31 01:00:27;;;;;;;6.40;5.73;;;12.00;99.90;;;;;;5067068;28;20435;-67
2021/10/31 01:02:54;;;;;;;7.37;6.53;;;11.80;99.90;;;;;;5057411;28;20527;-68
2021/10/31 01:05:25;;;;;;;7.13;6.40;;;11.70;99.90;;;;;;5052566;28;20459;-67
2021/10/31 01:08:12;;;;;;;10.70;6.30;;;11.60;99.90;;;;;;5067526;28;20505;-68
2021/10/31 01:10:53;;;;;;;6.30;5.37;;;11.40;99.90;;;;;;5047909;28;20593;-66
2021/10/31 01:13:45;;;;;;;6.80;6.20;;;11.40;99.90;;;;;;5050164;28;20853;-66
2021/10/31 01:16:26;;;;;;;7.30;6.53;;;11.30;99.90;;;;;;5064276;28;20462;-66
2021/10/31 01:19:12;;;;;;;7.10;6.30;;;11.30;99.90;;;;;;5071359;28;20939;-67
2021/10/31 01:21:47;;;;;;;8.10;5.70;;;11.20;99.90;;;;;;5070633;28;21083;-65
2021/10/31 01:24:46;;;;;;;7.33;5.90;;;11.20;99.90;;;;;;5070731;28;20422;-67
2021/10/31 01:27:27;;;;;;;6.30;5.50;;;11.10;99.90;;;;;;5071007;28;20501;-67
2021/10/31 01:30:06;;;;;;;7.37;6.00;;;10.90;99.90;;;;;;5069949;28;20814;-67
2021/10/31 01:32:47;;;;;;;9.80;7.40;;;10.80;99.90;;;;;;5066627;28;20439;-67
2021/10/31 01:35:23;;;;;;;7.20;6.20;;;10.80;99.90;;;;;;5072983;28;20447;-67
2021/10/31 01:37:57;;;;;;;6.70;5.80;;;10.60;99.90;;;;;;5071765;28;20793;-67
2021/10/31 01:40:31;;;;;;;7.33;6.60;;;10.60;99.90;;;;;;5072445;28;20513;-67
2021/10/31 01:43:06;;;;;;;7.93;7.20;;;10.50;99.90;;;;;;5072479;28;20426;-66
2021/10/31 01:45:41;;;;;;;9.00;7.87;;;10.40;99.90;;;;;;5072453;28;20464;-67
2021/10/31 01:48:14;;;;;;;9.27;6.80;;;10.30;99.90;;;;;;5071712;28;20440;-66
2021/10/31 01:50:45;;;;;;;8.93;7.20;;;10.20;99.90;;;;;;5072358;28;20443;-67
2021/10/31 01:53:18;;;;;;;9.77;6.97;;;10.10;99.90;;;;;;5072088;28;20521;-67
2021/10/31 01:55:49;;;;;;;7.87;7.07;;;10.10;99.90;;;;;;5071936;28;20467;-67
2021/10/31 01:58:20;;;;;;;12.10;8.93;;;10.20;99.90;;;;;;5071752;28;20454;-66
2021/10/31 02:00:50;;;;;;;10.47;6.70;;;10.20;99.90;;;;;;5071908;28;20458;-67
2021/10/31 02:03:19;;;;;;;7.60;6.80;;;10.20;99.90;;;;;;5072062;28;20847;-67
2021/10/31 02:05:48;;;;;;;7.33;6.60;;;10.20;99.90;;;;;;5072097;28;20471;-66
2021/10/31 02:08:18;;;;;;;7.83;6.80;;;10.50;99.90;;;;;;5071600;28;20439;-67
2021/10/31 02:10:48;;;;;;;9.03;7.13;;;10.60;99.90;;;;;;5072169;28;20558;-66
2021/10/31 02:13:16;;;;;;;6.50;5.70;;;10.70;99.90;;;;;;5071455;28;20495;-67
2021/10/31 02:15:44;;;;;;;9.13;7.10;;;10.70;99.90;;;;;;5071883;28;20534;-67
2021/10/31 02:18:15;;;;;;;7.50;6.73;;;10.60;99.90;;;;;;5071489;28;20443;-67
2021/10/31 02:20:43;;;;;;;7.30;6.60;;;10.50;99.90;;;;;;5071796;28;20889;-67
2021/10/31 02:23:12;;;;;;;8.70;6.90;;;10.40;99.90;;;;;;5071573;28;20953;-67
2021/10/31 02:25:39;;;;;;;7.90;7.00;;;10.30;99.90;;;;;;5071205;28;20467;-66
2021/10/31 02:28:06;;;;;;;7.73;6.93;;;10.10;99.90;;;;;;5071619;28;20462;-67
2021/10/31 02:30:33;;;;;;;6.73;6.03;;;10.00;99.90;;;;;;5071502;28;20521;-66
2021/10/31 02:32:59;;;;;;;9.63;7.10;;;9.90;99.90;;;;;;5071665;28;20449;-66
2021/10/31 02:35:26;;;;;;;6.77;6.17;;;9.70;99.90;;;;;;5071360;28;20487;-67
2021/10/31 02:37:53;;;;;;;9.20;7.17;;;9.70;99.90;;;;;;5071012;28;20470;-66
2021/10/31 02:40:23;;;;;;;7.50;6.60;;;9.60;99.90;;;;;;5071122;28;20439;-67
2021/10/31 02:42:50;;;;;;;8.33;7.50;;;9.50;99.90;;;;;;5071498;28;20447;-67
2021/10/31 02:45:18;;;;;;;12.53;7.37;;;9.40;99.90;;;;;;5071212;28;20549;-66
2021/10/31 02:47:52;;;;;;;8.00;6.83;;;9.30;99.90;;;;;;5070900;28;20517;-66
2021/10/31 02:50:26;;;;;;;10.03;9.03;;;9.20;99.90;;;;;;5071240;28;20806;-68
2021/10/31 02:53:14;;;;;;;9.93;8.97;;;9.20;99.90;;;;;;5071031;28;20453;-67
2021/10/31 02:55:52;;;;;;;11.13;9.00;;;9.30;99.90;;;;;;5071015;28;20458;-67
2021/10/31 02:58:23;;;;;;;10.00;9.00;;;9.30;99.90;;;;;;5070787;28;20447;-67
2021/10/31 03:00:55;;;;;;;10.83;9.73;;;9.30;99.90;;;;;;5070989;28;20443;-66
2021/10/31 03:03:22;;;;;;;13.33;10.03;;;9.40;99.90;;;;;;5070993;28;20854;-67
2021/10/31 03:05:53;;;;;;;11.40;9.83;;;9.50;99.90;;;;;;5070838;28;20481;-67
2021/10/31 03:08:20;;;;;;;12.03;10.10;;;9.70;99.90;;;;;;5071134;28;20463;-66
2021/10/31 03:10:50;;;;;;;10.90;9.83;;;9.70;99.90;;;;;;5071026;28;20445;-66
2021/10/31 03:13:17;;;;;;;11.47;9.23;;;9.70;99.90;;;;;;5071229;28;20445;-66
2021/10/31 03:15:44;;;;;;;10.10;9.10;;;9.60;99.90;;;;;;5070679;28;20473;-67
2021/10/31 03:18:11;;;;;;;12.23;9.37;;;9.60;99.90;;;;;;5070845;28;20917;-66
2021/10/31 03:20:38;;;;;;;10.60;9.37;;;9.50;99.90;;;;;;5070908;28;20443;-67
2021/10/31 03:23:04;;;;;;;9.77;8.70;;;9.50;99.90;;;;;;5070636;28;20443;-66
2021/10/31 03:25:31;;;;;;;9.77;8.77;;;9.40;99.90;;;;;;5070365;28;20459;-66
2021/10/31 03:28:00;;;;;;;10.40;9.40;;;9.40;99.90;;;;;;5070135;28;20451;-66
2021/10/31 03:30:26;;;;;;;11.63;10.17;;;9.40;99.90;;;;;;5070276;28;20439;-66
2021/10/31 03:32:53;;;;;;;12.60;11.30;;;9.40;99.90;;;;;;5070324;28;20465;-66
2021/10/31 03:35:20;;;;;;;11.07;9.97;;;9.50;99.90;;;;;;5069662;28;20487;-67
2021/10/31 03:37:47;;;;;;;13.77;11.40;;;9.50;99.90;;;;;;5069937;28;20430;-66
2021/10/31 03:40:14;;;;;;;13.40;12.00;;;9.50;99.90;;;;;;5070493;28;20483;-67
2021/10/31 03:42:41;;;;;;;12.20;10.80;;;9.40;99.90;;;;;;5070087;28;20446;-66
2021/10/31 03:45:11;;;;;;;11.40;10.30;;;9.30;99.90;;;;;;5070187;28;20542;-66
2021/10/31 03:47:42;;;;;;;11.70;9.50;;;9.30;99.90;;;;;;5069921;28;20446;-66
2021/10/31 03:50:10;;;;;;;11.43;10.30;;;9.20;99.90;;;;;;5070441;28;20431;-67
2021/10/31 03:52:37;;;;;;;13.13;10.20;;;9.10;99.90;;;;;;5069987;28;21032;-67
2021/10/31 03:55:05;;;;;;;12.53;10.40;;;9.10;99.90;;;;;;5070083;28;20479;-66
2021/10/31 03:57:31;;;;;;;14.63;10.90;;;9.00;99.90;;;;;;5069430;28;20454;-66
2021/10/31 03:59:58;;;;;;;11.47;10.40;;;9.00;99.90;;;;;;5070383;28;20443;-66
2021/10/31 04:02:26;;;;;;;12.13;10.47;;;8.90;99.90;;;;;;5070024;28;20446;-67
2021/10/31 04:04:53;;;;;;;11.93;10.30;;;8.90;99.90;;;;;;5070174;28;20431;-67
2021/10/31 04:07:20;;;;;;;12.60;10.77;;;8.80;99.90;;;;;;5069542;28;20438;-66
2021/10/31 04:09:47;;;;;;;13.07;11.70;;;8.80;99.90;;;;;;5070254;28;20439;-67
2021/10/31 04:12:14;;;;;;;17.93;14.10;;;8.80;99.90;;;;;;5070035;28;20450;-67
2021/10/31 04:14:41;;;;;;;12.20;10.90;;;8.70;99.90;;;;;;5069717;28;20489;-67
2021/10/31 04:17:08;;;;;;;17.60;12.83;;;8.80;99.90;;;;;;5069426;28;20449;-67
2021/10/31 04:19:36;;;;;;;15.73;14.17;;;8.80;99.90;;;;;;5069638;28;20837;-66
2021/10/31 04:22:03;;;;;;;15.27;13.63;;;9.00;99.90;;;;;;5069897;28;20439;-66
2021/10/31 04:24:30;;;;;;;14.60;13.20;;;9.20;99.90;;;;;;5069448;28;20812;-67
2021/10/31 04:27:00;;;;;;;15.37;13.77;;;9.40;99.90;;;;;;5069566;28;20475;-66
2021/10/31 04:29:27;;;;;;;15.63;13.97;;;9.30;99.90;;;;;;5069922;28;20451;-67
2021/10/31 04:31:54;;;;;;;14.37;12.97;;;9.30;99.90;;;;;;5070004;28;20443;-66
2021/10/31 04:34:20;;;;;;;13.83;12.53;;;9.20;99.90;;;;;;5069496;28;20479;-67
2021/10/31 04:36:50;;;;;;;13.50;11.40;;;9.10;99.90;;;;;;5069578;28;20463;-66
2021/10/31 04:39:17;;;;;;;13.33;12.07;;;9.00;99.90;;;;;;5069571;28;20446;-67
2021/10/31 04:41:46;;;;;;;13.20;11.80;;;9.00;99.90;;;;;;5069585;28;20469;-67
2021/10/31 04:44:13;;;;;;;12.97;11.63;;;8.90;99.90;;;;;;5069453;28;20534;-67
2021/10/31 04:46:40;;;;;;;13.73;12.33;;;8.90;99.90;;;;;;5069369;28;20463;-66
2021/10/31 04:49:07;;;;;;;14.70;13.30;;;8.80;99.90;;;;;;5073232;28;20450;-67
2021/10/31 04:51:34;;;;;;;14.20;11.97;;;8.80;99.90;;;;;;5073324;28;20446;-66
2021/10/31 04:54:02;;;;;;;12.50;11.20;;;8.80;99.90;;;;;;5073338;28;20449;-66
2021/10/31 04:56:29;;;;;;;17.03;13.63;;;8.70;99.90;;;;;;5072737;28;20478;-67
2021/10/31 04:58:56;;;;;;;14.90;13.37;;;8.70;99.90;;;;;;5073558;28;20454;-66
2021/10/31 05:01:23;;;;;;;13.80;12.50;;;8.70;99.90;;;;;;5073481;28;20445;-66
2021/10/31 05:03:49;;;;;;;15.07;13.40;;;8.70;99.90;;;;;;5073285;28;20512;-67
2021/10/31 05:06:16;;;;;;;17.97;15.43;;;8.80;99.90;;;;;;5072645;28;20459;-67
2021/10/31 05:08:43;;;;;;;14.33;12.93;;;8.80;99.90;;;;;;5073093;28;20446;-66
2021/10/31 05:11:11;;;;;;;15.30;12.30;;;9.00;99.90;;;;;;5072942;28;20959;-67
2021/10/31 05:13:39;;;;;;;14.97;13.40;;;9.00;99.90;;;;;;5073012;28;20443;-67
2021/10/31 05:16:06;;;;;;;16.47;14.70;;;9.10;99.90;;;;;;5072861;28;20566;-67
2021/10/31 05:18:34;;;;;;;13.77;12.37;;;9.10;99.90;;;;;;5072887;28;20954;-67
2021/10/31 05:21:01;;;;;;;14.83;13.33;;;9.00;99.90;;;;;;5072730;28;20446;-67
2021/10/31 05:23:28;;;;;;;14.53;13.10;;;9.00;99.90;;;;;;5073227;28;20439;-65
2021/10/31 05:25:55;;;;;;;14.20;12.40;;;9.00;99.90;;;;;;5072797;28;20566;-67
2021/10/31 05:28:25;;;;;;;15.00;12.20;;;9.00;99.90;;;;;;5072766;28;20446;-66
2021/10/31 05:30:51;;;;;;;14.73;13.13;;;9.00;99.90;;;;;;5072581;28;20439;-67
2021/10/31 05:33:19;;;;;;;14.07;12.07;;;8.90;99.90;;;;;;5072602;28;20442;-66
2021/10/31 05:35:47;;;;;;;15.67;12.80;;;8.90;99.90;;;;;;5072661;28;20478;-66
2021/10/31 05:38:18;;;;;;;13.30;11.90;;;8.90;99.90;;;;;;5072649;28;20447;-67
2021/10/31 05:40:45;;;;;;;13.83;12.33;;;8.90;99.90;;;;;;5072520;28;20451;-66
2021/10/31 05:43:12;;;;;;;12.27;10.73;;;8.80;99.90;;;;;;5072460;28;20465;-66
2021/10/31 05:45:41;;;;;;;13.70;12.00;;;8.80;99.90;;;;;;5072061;28;20486;-67
2021/10/31 05:48:08;;;;;;;12.83;11.53;;;8.70;99.90;;;;;;5072169;28;20443;-67
2021/10/31 05:50:35;;;;;;;14.60;13.20;;;8.70;99.90;;;;;;5072150;28;20449;-66
2021/10/31 05:53:02;;;;;;;13.53;12.13;;;8.60;99.90;;;;;;5072394;28;20443;-67
2021/10/31 05:55:29;;;;;;;12.73;11.43;;;8.50;99.90;;;;;;5072079;28;20864;-66
2021/10/31 05:57:56;;;;;;;17.50;13.40;;;8.40;99.90;;;;;;5071516;28;20822;-66
2021/10/31 06:00:23;;;;;;;14.63;13.13;;;8.40;99.90;;;;;;5071568;28;20446;-66
2021/10/31 06:02:51;;;;;;;14.97;13.47;;;8.40;99.90;;;;;;5072077;28;20454;-67
2021/10/31 06:05:19;;;;;;;15.50;13.13;;;8.40;99.90;;;;;;5072239;28;20459;-68
2021/10/31 06:07:46;;;;;;;15.00;13.40;;;8.40;99.90;;;;;;5071739;28;20443;-66
2021/10/31 06:10:13;;;;;;;15.83;14.23;;;8.40;99.90;;;;;;5071820;28;20933;-65
2021/10/31 06:12:43;;;;;;;16.37;14.47;;;8.40;99.90;;;;;;5071526;28;20447;-68
2021/10/31 06:15:10;;;;;;;18.43;14.60;;;8.50;99.90;;;;;;5071784;28;20490;-66
2021/10/31 06:17:39;;;;;;;15.20;13.70;;;8.70;99.90;;;;;;5071304;28;21140;-66
2021/10/31 06:20:08;;;;;;;16.30;14.60;;;8.80;99.90;;;;;;5071653;28;20933;-67
2021/10/31 06:22:35;;;;;;;16.07;14.47;;;8.90;99.90;;;;;;5071707;28;20454;-67
2021/10/31 06:25:02;;;;;;;18.10;16.20;;;9.00;99.90;;;;;;5071582;28;20467;-66
2021/10/31 06:27:29;;;;;;;17.00;14.20;;;9.00;99.90;;;;;;5071189;28;20516;-66
2021/10/31 06:29:55;;;;;;;15.83;14.23;;;9.00;99.90;;;;;;5071637;28;20451;-67
2021/10/31 06:32:22;;;;;;;14.67;13.20;;;9.00;99.90;;;;;;5071077;28;20772;-66
2021/10/31 06:34:49;;;;;;;15.33;13.83;;;9.10;99.90;;;;;;5071352;28;20475;-67
2021/10/31 06:37:17;;;;;;;17.07;14.80;;;9.20;99.90;;;;;;5070803;28;20451;-66
2021/10/31 06:39:44;;;;;;;15.20;13.80;;;9.30;99.90;;;;;;5071166;28;20925;-66
2021/10/31 06:42:11;;;;;;;16.20;14.60;;;9.40;99.90;;;;;;5071175;28;20457;-68
2021/10/31 06:44:38;;;;;;;16.50;14.90;;;9.50;99.90;;;;;;5071205;28;20461;-67
2021/10/31 06:47:05;;;;;;;15.10;13.07;;;9.50;99.90;;;;;;5070709;28;21007;-66
2021/10/31 06:49:32;;;;;;;15.10;13.60;;;9.70;99.90;;;;;;5070807;28;20454;-67
2021/10/31 06:51:59;;;;;;;16.40;12.73;;;9.70;99.90;;;;;;5071050;28;20516;-67
2021/10/31 06:54:28;;;;;;;14.57;13.07;;;9.70;99.90;;;;;;5070628;28;20486;-67
2021/10/31 06:56:55;;;;;;;12.40;11.13;;;9.70;99.90;;;;;;5070473;28;20470;-64
2021/10/31 06:59:22;;;;;;;14.33;13.00;;;9.80;99.90;;;;;;5070868;28;20431;-66
2021/10/31 07:01:49;;;;;;;13.47;12.03;;;9.70;99.90;;;;;;5070651;28;20450;-66
2021/10/31 07:04:16;;;;;;;12.33;11.13;;;9.80;99.90;;;;;;5070890;28;21086;-67
2021/10/31 07:06:43;;;;;;;12.77;11.47;;;9.80;99.90;;;;;;5070708;28;20486;-67
2021/10/31 07:09:10;;;;;;;13.20;11.90;;;9.80;99.90;;;;;;5070654;28;20439;-67
2021/10/31 07:11:38;;;;;;;13.57;12.13;;;9.90;99.90;;;;;;5070547;28;20439;-68
2021/10/31 07:14:05;;;;;;;13.63;12.00;;;9.90;99.90;;;;;;5070401;28;20434;-67
2021/10/31 07:16:32;;;;;;;12.90;11.60;;;9.90;99.90;;;;;;5069986;28;20486;-66
2021/10/31 07:18:58;;;;;;;12.17;10.97;;;10.00;99.90;;;;;;5070094;28;20450;-67
2021/10/31 07:21:26;;;;;;;12.30;11.20;;;10.20;99.90;;;;;;5070461;28;20439;-67
2021/10/31 07:23:53;;;;;;;15.33;12.40;;;10.20;99.90;;;;;;5070407;28;20482;-67
2021/10/31 07:26:19;;;;;;;12.47;11.27;;;10.30;99.90;;;;;;5070061;28;20463;-67
2021/10/31 07:28:47;;;;;;;11.93;10.73;;;10.30;99.90;;;;;;5070373;28;21062;-66
2021/10/31 07:31:18;;;;;;;13.27;11.97;;;10.30;99.90;;;;;;5070024;28;20447;-66
2021/10/31 07:33:45;;;;;;;13.23;11.83;;;10.40;99.90;;;;;;5070039;28;20443;-66
2021/10/31 07:36:12;;;;;;;12.20;11.00;;;10.50;99.90;;;;;;5069612;28;20479;-67
2021/10/31 07:38:41;;;;;;;12.10;10.93;;;10.60;99.90;;;;;;5070066;28;20900;-67
2021/10/31 07:41:08;;;;;;;13.27;12.07;;;10.70;99.90;;;;;;5070033;28;20457;-66
2021/10/31 07:43:35;;;;;;;12.53;11.23;;;10.70;99.90;;;;;;5070049;28;20529;-68
2021/10/31 07:46:03;;;;;;;12.60;11.30;;;10.80;99.90;;;;;;5069616;28;20467;-67
2021/10/31 07:48:30;;;;;;;13.10;11.80;;;10.90;99.90;;;;;;5069493;28;20441;-67
2021/10/31 07:50:57;;;;;;;14.33;12.93;;;11.00;99.90;;;;;;5069881;28;20454;-67
2021/10/31 07:53:24;;;;;;;12.60;11.30;;;11.00;99.90;;;;;;5069728;28;20443;-67
2021/10/31 07:55:52;;;;;;;11.93;10.80;;;11.10;99.90;;;;;;5069300;28;20497;-67
2021/10/31 07:58:22;;;;;;;10.67;9.67;;;11.30;99.90;;;;;;5069663;28;20447;-67
2021/10/31 08:00:50;;;;;;;10.60;9.57;;;11.40;99.90;;;;;;5069935;28;20455;-67
2021/10/31 08:03:18;;;;;;;10.93;9.90;;;11.50;99.90;;;;;;5069707;28;20446;-67
2021/10/31 08:05:46;;;;;;;11.37;10.27;;;11.60;99.90;;;;;;5069707;28;20467;-67
2021/10/31 08:08:13;;;;;;;11.63;10.47;;;11.60;99.90;;;;;;5069453;28;20449;-67
2021/10/31 08:10:40;;;;;;;11.30;10.20;;;11.60;99.90;;;;;;5069401;28;20945;-69
2021/10/31 08:13:07;;;;;;;10.20;9.20;;;11.70;99.90;;;;;;5069588;28;20538;-66
2021/10/31 08:15:35;;;;;;;10.80;9.70;;;11.80;99.90;;;;;;5069520;28;21040;-66
2021/10/31 08:18:01;;;;;;;11.73;10.10;;;12.00;99.90;;;;;;5069019;28;20500;-66
2021/10/31 08:20:30;;;;;;;9.80;8.80;;;12.10;99.90;;;;;;5069670;28;20828;-66
2021/10/31 08:22:57;;;;;;;10.23;9.23;;;12.20;99.90;;;;;;5068987;28;20439;-66
2021/10/31 08:25:24;;;;;;;10.90;9.80;;;12.40;99.90;;;;;;5069487;28;20467;-66
2021/10/31 08:27:51;;;;;;;9.30;8.40;;;12.50;99.90;;;;;;5068996;28;20453;-67
2021/10/31 08:30:18;;;;;;;9.83;8.83;;;12.50;99.90;;;;;;5069356;28;20455;-66
2021/10/31 08:32:48;;;;;;;9.57;8.57;;;12.60;99.90;;;;;;5069509;28;20533;-66
2021/10/31 08:35:15;;;;;;;11.47;10.27;;;12.60;99.90;;;;;;5069203;28;20470;-67
2021/10/31 08:37:43;;;;;;;10.90;9.90;;;12.70;99.90;;;;;;5068728;28;20443;-66
2021/10/31 08:40:11;;;;;;;12.10;11.00;;;12.80;99.90;;;;;;5069313;28;20450;-66
2021/10/31 08:42:38;;;;;;;11.03;9.97;;;13.10;99.90;;;;;;5069091;28;20978;-66
2021/10/31 08:45:06;;;;;;;9.50;8.70;;;13.30;99.90;;;;;;5069138;28;20496;-67
2021/10/31 08:47:33;;;;;;;9.83;8.83;;;13.30;99.90;;;;;;5068744;28;20956;-66
2021/10/31 08:50:00;;;;;;;9.80;8.80;;;13.50;99.90;;;;;;5069378;28;20449;-66
2021/10/31 08:52:27;;;;;;;9.90;8.60;;;13.50;99.90;;;;;;5063621;28;20451;-67
2021/10/31 08:54:56;;;;;;;10.07;9.03;;;13.60;99.90;;;;;;5067881;28;20451;-65
2021/10/31 08:57:23;;;;;;;10.97;9.50;;;13.60;99.90;;;;;;5068283;28;20474;-65
2021/10/31 08:59:50;;;;;;;9.53;8.63;;;13.60;99.90;;;;;;5061158;28;20463;-65
2021/10/31 09:02:17;;;;;;;8.73;7.90;;;13.70;99.90;;;;;;5067925;28;20454;-65
2021/10/31 09:04:43;;;;;;;8.27;7.27;;;13.70;99.90;;;;;;5068899;28;20449;-68
2021/10/31 09:07:14;;;;;;;9.10;8.20;;;13.70;99.90;;;;;;5069357;28;20845;-66
2021/10/31 09:09:42;;;;;;;8.10;7.30;;;13.80;99.90;;;;;;5068873;28;20447;-65
2021/10/31 09:12:12;;;;;;;9.07;8.00;;;13.90;99.90;;;;;;5068957;28;20444;-66
2021/10/31 09:14:39;;;;;;;8.67;7.30;;;14.00;99.90;;;;;;5069264;28;20868;-65
2021/10/31 09:17:06;;;;;;;8.37;7.57;;;14.20;99.90;;;;;;5068886;28;20486;-67
2021/10/31 09:19:33;;;;;;;8.90;8.00;;;14.20;99.90;;;;;;5069310;28;20819;-65
2021/10/31 09:22:00;;;;;;;8.40;7.60;;;14.30;99.90;;;;;;5069192;28;20443;-66
2021/10/31 09:24:28;;;;;;;8.60;7.80;;;14.40;99.90;;;;;;5068868;28;20814;-65
2021/10/31 09:26:55;;;;;;;8.43;7.70;;;14.60;99.90;;;;;;5068532;28;21038;-64
2021/10/31 09:29:23;;;;;;;8.17;7.37;;;14.80;99.90;;;;;;5063445;28;20447;-66
2021/10/31 09:31:50;;;;;;;7.80;7.00;;;15.10;99.90;;;;;;5068928;28;20479;-63
2021/10/31 09:34:17;;;;;;;7.80;6.93;;;15.40;99.90;;;;;;5070270;28;20820;-65
2021/10/31 09:36:44;;;;;;;8.00;7.30;;;15.70;99.90;;;;;;5072230;28;20482;-65
2021/10/31 09:39:12;;;;;;;8.63;7.83;;;15.90;99.90;;;;;;5072344;28;20455;-64
2021/10/31 09:41:39;;;;;;;8.10;7.30;;;16.10;99.90;;;;;;5072980;28;20451;-65
2021/10/31 09:44:18;;;;;;;7.37;6.67;;;16.30;99.90;;;;;;5072416;28;20994;-66
2021/10/31 09:46:46;;;;;;;7.70;6.90;;;16.50;99.90;;;;;;5072095;28;20486;-71
2021/10/31 09:49:14;;;;;;;7.00;6.30;;;16.90;99.90;;;;;;5069287;28;20435;-64
2021/10/31 09:51:43;;;;;;;7.70;6.90;;;17.40;99.90;;;;;;5061131;28;20475;-63
2021/10/31 09:54:13;;;;;;;7.43;6.63;;;17.80;99.90;;;;;;5057585;28;20456;-63
2021/10/31 09:56:41;;;;;;;7.57;6.77;;;18.30;99.90;;;;;;5057769;28;20864;-64
2021/10/31 09:59:11;;;;;;;6.93;6.33;;;18.80;99.90;;;;;;5060534;28;20988;-62
2021/10/31 10:02:12;;;;;;;6.70;6.00;;;19.30;99.90;;;;;;5071484;28;20446;-64
2021/10/31 10:04:48;;;;;;;6.00;5.40;;;19.90;99.90;;;;;;5068121;28;20439;-64
2021/10/31 10:07:16;;;;;;;6.30;5.37;;;20.40;99.90;;;;;;5055467;28;20814;-64
2021/10/31 10:09:51;;;;;;;6.50;5.60;;;20.70;99.90;;;;;;5065670;28;20483;-65
2021/10/31 10:12:19;;;;;;;5.70;5.10;;;21.10;99.90;;;;;;5062458;28;20447;-63
2021/10/31 10:14:51;;;;;;;5.83;5.20;;;21.40;99.90;;;;;;5067180;28;20459;-68
2021/10/31 10:17:18;;;;;;;5.40;4.50;;;21.80;99.90;;;;;;5064268;28;20479;-66
2021/10/31 10:19:52;;;;;;;6.10;5.50;;;22.20;99.90;;;;;;5070707;28;20504;-64
2021/10/31 10:22:21;;;;;;;6.30;5.30;;;22.50;99.90;;;;;;5070728;28;20446;-65
2021/10/31 10:24:53;;;;;;;6.07;5.13;;;22.70;99.90;;;;;;5070957;28;20532;-64
2021/10/31 10:27:23;;;;;;;5.93;5.33;;;22.90;99.90;;;;;;5066780;28;20462;-63
2021/10/31 10:29:50;;;;;;;5.90;4.97;;;23.20;99.90;;;;;;5069142;28;20526;-65
2021/10/31 10:32:19;;;;;;;5.67;5.07;;;23.40;99.90;;;;;;5060417;28;20447;-65
2021/10/31 10:34:50;;;;;;;6.13;5.30;;;23.80;99.90;;;;;;5064951;28;20559;-64
2021/10/31 10:37:20;;;;;;;5.90;5.30;;;24.20;99.90;;;;;;5070057;28;20467;-64
2021/10/31 10:39:52;;;;;;;5.40;4.70;;;24.50;99.90;;;;;;5066359;28;20467;-65
2021/10/31 10:42:22;;;;;;;6.30;4.50;;;24.50;99.90;;;;;;5064604;28;20447;-65
2021/10/31 10:44:49;;;;;;;5.70;5.17;;;24.90;99.40;;;;;;5069073;28;20966;-63
2021/10/31 10:47:20;;;;;;;5.73;5.23;;;25.40;98.00;;;;;;5070232;28;20529;-63
2021/10/31 10:49:50;;;;;;;5.60;5.10;;;25.90;97.40;;;;;;5066255;28;20451;-64
2021/10/31 10:52:23;;;;;;;4.80;4.30;;;26.50;95.40;;;;;;5062593;28;20820;-64
2021/10/31 10:55:07;;;;;;;5.83;5.00;;;26.80;95.80;;;;;;5070324;28;20443;-64
2021/10/31 10:57:36;;;;;;;5.90;5.30;;;27.20;94.90;;;;;;5069070;28;20485;-64
2021/10/31 11:00:08;;;;;;;7.13;5.03;;;27.50;92.60;;;;;;5054278;28;20450;-67
2021/10/31 11:02:35;;;;;;;5.40;4.90;;;27.00;93.70;;;;;;5070665;28;20454;-64
2021/10/31 11:05:06;;;;;;;4.80;4.30;;;26.70;94.00;;;;;;5070033;28;20506;-65
2021/10/31 11:07:37;;;;;;;4.93;4.33;;;26.20;95.10;;;;;;5070105;28;20444;-64
2021/10/31 11:10:19;;;;;;;5.90;5.30;;;25.80;94.80;;;;;;5050408;28;20444;-65
2021/10/31 11:12:48;;;;;;;5.80;5.20;;;25.10;95.60;;;;;;5048980;28;20542;-72
2021/10/31 11:15:18;;;;;;;5.83;4.83;;;24.40;97.10;;;;;;5050338;28;20815;-64
2021/10/31 11:17:46;;;;;;;4.80;4.30;;;23.80;97.10;;;;;;5050201;28;20870;-63
2021/10/31 11:20:16;;;;;;;5.87;4.10;;;23.60;97.80;;;;;;5050231;28;20444;-65
2021/10/31 11:22:46;;;;;;;6.20;4.63;;;23.50;98.40;;;;;;5050316;28;20450;-67
2021/10/31 11:25:15;;;;;;;4.80;4.00;;;23.30;98.00;;;;;;5063111;28;20471;-66
2021/10/31 11:27:42;;;;;;;4.90;3.93;;;23.20;98.40;;;;;;5066138;28;20463;-68
2021/10/31 11:30:12;;;;;;;4.17;3.70;;;23.40;98.40;;;;;;5068881;28;20446;-63
2021/10/31 11:32:40;;;;;;;5.40;3.80;;;23.50;98.30;;;;;;5068961;28;20489;-65
2021/10/31 11:35:08;;;;;;;5.30;3.83;;;23.30;98.80;;;;;;5056932;28;20471;-64
2021/10/31 11:37:43;;;;;;;4.00;3.37;;;22.90;98.70;;;;;;5063292;28;20481;-64
2021/10/31 11:40:12;;;;;;;3.67;2.97;;;22.70;98.70;;;;;;5069189;28;20442;-65
2021/10/31 11:42:42;;;;;;;5.47;4.20;;;22.60;99.00;;;;;;5068233;28;20447;-63
2021/10/31 11:45:16;;;;;;;4.77;3.70;;;22.30;99.30;;;;;;5050054;28;20906;-62
2021/10/31 11:47:45;;;;;;;4.13;3.53;;;22.20;99.30;;;;;;5052733;28;20531;-63
2021/10/31 11:50:17;;;;;;;4.90;3.40;;;22.20;99.30;;;;;;5060153;28;20828;-64
2021/10/31 11:52:48;;;;;;;4.63;3.30;;;22.20;99.80;;;;;;5060112;28;20535;-64
2021/10/31 11:55:35;;;;;;;5.10;3.80;;;22.20;98.80;;;;;;5060171;28;20550;-63
2021/10/31 11:58:55;;;;;;;4.83;3.47;;;22.20;99.70;;;;;;5062811;28;21006;-66
2021/10/31 12:01:35;;;;;;;4.10;3.00;;;22.10;98.30;;;;;;5057862;28;20543;-64
2021/10/31 12:04:04;;;;;;;4.07;3.37;;;22.00;99.30;;;;;;5054359;28;20556;-64
2021/10/31 12:06:36;;;;;;;4.60;2.60;;;21.90;98.00;;;;;;5061432;28;20459;-64
2021/10/31 12:09:06;;;;;;;3.37;2.53;;;22.10;98.10;;;;;;5067029;28;20445;-63
2021/10/31 12:12:07;;;;;;;3.40;2.63;;;22.00;96.80;;;;;;5068839;28;20443;-65
2021/10/31 12:14:47;;;;;;;4.13;2.63;;;21.90;97.10;;;;;;5055045;28;20446;-64
2021/10/31 12:17:14;;;;;;;3.17;2.33;;;21.80;95.80;;;;;;5056842;28;20482;-64
2021/10/31 12:19:42;;;;;;;3.10;2.60;;;21.90;97.20;;;;;;5066182;28;20925;-62
2021/10/31 12:22:12;;;;;;;3.80;2.87;;;21.90;96.70;;;;;;5061608;28;20505;-65
2021/10/31 12:24:42;;;;;;;3.63;2.70;;;21.90;96.80;;;;;;5057127;28;20448;-63
2021/10/31 12:27:14;;;;;;;4.07;2.87;;;21.90;96.80;;;;;;5068153;28;20435;-63
2021/10/31 12:29:57;;;;;;;3.00;2.40;;;21.90;97.50;;;;;;5061861;28;20475;-65
2021/10/31 12:32:26;;;;;;;2.83;2.30;;;21.90;97.60;;;;;;5063470;28;20447;-65
2021/10/31 12:34:55;;;;;;;3.37;2.67;;;21.80;96.90;;;;;;5058594;28;20451;-66
2021/10/31 12:37:25;;;;;;;4.50;2.60;;;21.70;97.50;;;;;;5064832;28;20494;-64
2021/10/31 12:39:56;;;;;;;3.13;2.17;;;21.70;98.00;;;;;;5054730;28;20457;-64
2021/10/31 12:42:26;;;;;;;5.00;2.87;;;21.70;98.60;;;;;;5050235;28;20451;-64
2021/10/31 12:44:56;;;;;;;4.73;3.23;;;21.80;98.10;;;;;;5051457;28;20455;-65
2021/10/31 12:47:34;;;;;;;3.50;2.83;;;21.80;97.00;;;;;;5056239;28;20455;-64
2021/10/31 12:50:16;;;;;;;4.00;2.57;;;21.70;97.40;;;;;;5055584;28;20464;-64
2021/10/31 12:52:44;;;;;;;3.00;2.40;;;21.60;97.60;;;;;;5054644;28;20513;-64
2021/10/31 12:55:15;;;;;;;3.97;2.70;;;21.60;96.70;;;;;;5055082;28;20504;-64